createdAt,value
2019-01-24T00:00:19.591Z,995.58
2019-01-24T00:01:19.579Z,995.52
2019-01-24T00:02:19.577Z,995.54
2019-01-24T00:03:19.557Z,995.56
2019-01-24T00:04:19.545Z,995.56
2019-01-24T00:05:19.565Z,995.62
2019-01-24T00:06:19.810Z,995.58
2019-01-24T00:07:19.518Z,995.63
2019-01-24T00:08:19.505Z,995.61
2019-01-24T00:09:19.495Z,995.63
2019-01-24T00:10:19.490Z,995.69
2019-01-24T00:11:19.521Z,995.69
2019-01-24T00:12:19.468Z,995.73
2019-01-24T00:13:19.739Z,995.74
2019-01-24T00:14:19.453Z,995.71
2019-01-24T00:15:19.448Z,995.71
2019-01-24T00:16:19.451Z,995.73
2019-01-24T00:17:19.446Z,995.73
2019-01-24T00:18:19.472Z,995.73
2019-01-24T00:19:19.397Z,995.73
2019-01-24T00:20:19.695Z,995.76
2019-01-24T00:21:19.378Z,995.73
2019-01-24T00:22:19.363Z,995.71
2019-01-24T00:23:19.397Z,995.71
2019-01-24T00:24:19.346Z,995.74
2019-01-24T00:25:19.346Z,995.71
2019-01-24T00:26:19.325Z,995.72
2019-01-24T00:27:19.610Z,995.79
2019-01-24T00:28:19.305Z,995.83
2019-01-24T00:29:19.338Z,995.81
2019-01-24T00:30:19.286Z,995.84
2019-01-24T00:31:19.273Z,995.85
2019-01-24T00:32:19.263Z,995.86
2019-01-24T00:33:19.255Z,995.89
2019-01-24T00:34:23.275Z,995.94
2019-01-24T00:35:19.258Z,995.89
2019-01-24T00:36:19.224Z,995.94
2019-01-24T00:37:19.213Z,995.96
2019-01-24T00:38:19.206Z,995.99
2019-01-24T00:39:19.192Z,995.95
2019-01-24T00:40:19.188Z,996.01
2019-01-24T00:41:19.485Z,996.00
2019-01-24T00:42:19.170Z,995.99
2019-01-24T00:43:19.155Z,996.04
2019-01-24T00:44:19.144Z,996.08
2019-01-24T00:45:19.132Z,996.03
2019-01-24T00:46:19.122Z,996.05
2019-01-24T00:47:19.312Z,996.08
2019-01-24T00:48:19.380Z,996.12
2019-01-24T00:49:19.091Z,996.11
2019-01-24T00:50:19.080Z,996.17
2019-01-24T00:51:19.074Z,996.15
2019-01-24T00:52:19.965Z,996.17
2019-01-24T00:53:19.083Z,996.20
2019-01-24T00:54:19.042Z,996.22
2019-01-24T00:55:19.309Z,996.22
2019-01-24T00:56:19.020Z,996.20
2019-01-24T00:57:19.010Z,996.23
2019-01-24T00:58:18.999Z,996.28
2019-01-24T00:59:19.017Z,996.29
2019-01-24T01:00:18.990Z,996.27
2019-01-24T01:01:19.280Z,996.27
2019-01-24T01:02:18.962Z,996.31
2019-01-24T01:03:18.949Z,996.34
2019-01-24T01:04:18.950Z,996.31
2019-01-24T01:05:19.115Z,996.33
2019-01-24T01:06:18.931Z,996.33
2019-01-24T01:07:19.074Z,996.35
2019-01-24T01:08:19.244Z,996.32
2019-01-24T01:09:18.894Z,996.33
2019-01-24T01:10:18.887Z,996.28
2019-01-24T01:11:18.898Z,996.35
2019-01-24T01:12:18.882Z,996.40
2019-01-24T01:13:18.848Z,996.36
2019-01-24T01:14:18.839Z,996.35
2019-01-24T01:15:20.149Z,996.38
2019-01-24T01:16:18.819Z,996.42
2019-01-24T01:17:18.838Z,996.42
2019-01-24T01:18:18.800Z,996.38
2019-01-24T01:19:18.790Z,996.42
2019-01-24T01:20:18.797Z,996.43
2019-01-24T01:21:18.771Z,996.45
2019-01-24T01:22:19.042Z,996.46
2019-01-24T01:23:18.830Z,996.49
2019-01-24T01:24:18.738Z,996.51
2019-01-24T01:25:18.727Z,996.56
2019-01-24T01:26:18.724Z,996.57
2019-01-24T01:27:18.706Z,996.59
2019-01-24T01:28:18.973Z,996.62
2019-01-24T01:29:18.716Z,996.60
2019-01-24T01:30:18.677Z,996.59
2019-01-24T01:31:18.672Z,996.57
2019-01-24T01:32:18.658Z,996.61
2019-01-24T01:33:18.649Z,996.59
2019-01-24T01:34:18.642Z,996.62
2019-01-24T01:35:18.656Z,996.62
2019-01-24T01:36:18.616Z,996.60
2019-01-24T01:37:18.607Z,996.63
2019-01-24T01:38:18.598Z,996.62
2019-01-24T01:39:18.589Z,996.64
2019-01-24T01:40:18.884Z,996.67
2019-01-24T01:41:18.616Z,996.62
2019-01-24T01:42:18.556Z,996.65
2019-01-24T01:43:18.544Z,996.70
2019-01-24T01:44:18.536Z,996.68
2019-01-24T01:45:18.526Z,996.63
2019-01-24T01:46:18.522Z,996.65
2019-01-24T01:47:18.538Z,996.68
2019-01-24T01:48:18.496Z,996.67
2019-01-24T01:49:18.508Z,996.72
2019-01-24T01:50:18.476Z,996.74
2019-01-24T01:51:18.463Z,996.72
2019-01-24T01:52:18.737Z,996.76
2019-01-24T01:53:18.473Z,996.76
2019-01-24T01:54:18.443Z,996.76
2019-01-24T01:55:18.425Z,996.74
2019-01-24T01:56:18.414Z,996.72
2019-01-24T01:57:18.403Z,996.71
2019-01-24T01:58:18.396Z,996.72
2019-01-24T01:59:18.686Z,996.68
2019-01-24T02:00:18.387Z,996.72
2019-01-24T02:01:18.364Z,996.69
2019-01-24T02:02:18.397Z,996.71
2019-01-24T02:03:18.345Z,996.66
2019-01-24T02:04:18.332Z,996.69
2019-01-24T02:05:18.633Z,996.60
2019-01-24T02:06:18.315Z,996.61
2019-01-24T02:07:18.303Z,996.70
2019-01-24T02:08:18.290Z,996.67
2019-01-24T02:09:18.281Z,996.69
2019-01-24T02:10:18.272Z,996.68
2019-01-24T02:11:18.289Z,996.73
2019-01-24T02:12:18.559Z,996.75
2019-01-24T02:13:18.252Z,996.77
2019-01-24T02:14:18.229Z,996.80
2019-01-24T02:15:18.220Z,996.86
2019-01-24T02:16:18.230Z,996.81
2019-01-24T02:17:18.234Z,996.84
2019-01-24T02:18:18.188Z,996.88
2019-01-24T02:19:18.477Z,996.89
2019-01-24T02:20:18.167Z,996.92
2019-01-24T02:21:18.164Z,996.96
2019-01-24T02:22:18.148Z,996.94
2019-01-24T02:23:18.165Z,996.94
2019-01-24T02:24:18.129Z,996.96
2019-01-24T02:25:18.123Z,996.96
2019-01-24T02:26:18.403Z,996.91
2019-01-24T02:27:18.102Z,996.95
2019-01-24T02:28:18.086Z,996.97
2019-01-24T02:29:18.121Z,996.98
2019-01-24T02:30:18.066Z,996.97
2019-01-24T02:31:18.058Z,996.98
2019-01-24T02:32:18.045Z,996.96
2019-01-24T02:33:18.042Z,996.96
2019-01-24T02:34:18.024Z,996.99
2019-01-24T02:35:18.303Z,997.03
2019-01-24T02:36:18.016Z,996.97
2019-01-24T02:37:18.024Z,997.03
2019-01-24T02:38:17.986Z,997.03
2019-01-24T02:39:17.981Z,997.01
2019-01-24T02:40:17.963Z,996.95
2019-01-24T02:41:18.087Z,996.98
2019-01-24T02:42:17.949Z,997.00
2019-01-24T02:43:17.943Z,996.99
2019-01-24T02:44:17.929Z,997.03
2019-01-24T02:45:18.197Z,997.02
2019-01-24T02:46:17.909Z,997.03
2019-01-24T02:47:17.921Z,997.02
2019-01-24T02:48:17.883Z,997.07
2019-01-24T02:49:17.872Z,997.08
2019-01-24T02:50:17.880Z,997.06
2019-01-24T02:51:17.852Z,997.11
2019-01-24T02:52:17.847Z,997.09
2019-01-24T02:53:17.883Z,997.09
2019-01-24T02:54:17.844Z,997.06
2019-01-24T02:55:17.813Z,996.97
2019-01-24T02:56:17.825Z,997.04
2019-01-24T02:57:18.897Z,997.03
2019-01-24T02:58:17.785Z,997.00
2019-01-24T02:59:17.797Z,997.00
2019-01-24T03:01:40.050Z,996.99
2019-01-24T03:02:39.309Z,997.00
2019-01-24T03:03:39.300Z,997.04
2019-01-24T03:04:39.305Z,996.99
2019-01-24T03:05:39.297Z,997.02
2019-01-24T03:06:39.287Z,997.01
2019-01-24T03:07:39.925Z,997.01
2019-01-24T03:08:39.251Z,997.03
2019-01-24T03:09:39.240Z,996.99
2019-01-24T03:10:39.230Z,996.99
2019-01-24T03:11:39.225Z,997.03
2019-01-24T03:12:39.245Z,997.06
2019-01-24T03:13:39.238Z,997.06
2019-01-24T03:14:39.481Z,997.10
2019-01-24T03:15:39.180Z,997.13
2019-01-24T03:16:39.182Z,997.14
2019-01-24T03:17:39.161Z,997.12
2019-01-24T03:18:39.154Z,997.15
2019-01-24T03:19:39.288Z,997.16
2019-01-24T03:20:39.126Z,997.20
2019-01-24T03:21:39.412Z,997.25
2019-01-24T03:22:39.110Z,997.20
2019-01-24T03:23:39.098Z,997.22
2019-01-24T03:24:39.086Z,997.19
2019-01-24T03:25:39.128Z,997.23
2019-01-24T03:26:39.065Z,997.23
2019-01-24T03:27:39.057Z,997.25
2019-01-24T03:28:39.353Z,997.25
2019-01-24T03:29:39.038Z,997.29
2019-01-24T03:30:39.027Z,997.26
2019-01-24T03:31:39.074Z,997.31
2019-01-24T03:32:39.007Z,997.30
2019-01-24T03:33:39.011Z,997.24
2019-01-24T03:34:39.007Z,997.21
2019-01-24T03:35:39.280Z,997.18
2019-01-24T03:36:38.963Z,997.16
2019-01-24T03:37:39.276Z,997.19
2019-01-24T03:38:38.942Z,997.20
2019-01-24T03:39:38.939Z,997.22
2019-01-24T03:40:38.933Z,997.24
2019-01-24T03:41:38.912Z,997.20
2019-01-24T03:42:39.195Z,997.21
2019-01-24T03:43:38.933Z,997.15
2019-01-24T03:44:38.883Z,997.22
2019-01-24T03:45:38.877Z,997.22
2019-01-24T03:46:38.863Z,997.19
2019-01-24T03:47:38.880Z,997.18
2019-01-24T03:48:38.858Z,997.19
2019-01-24T03:49:39.149Z,997.21
2019-01-24T03:50:38.825Z,997.20
2019-01-24T03:51:38.822Z,997.20
2019-01-24T03:52:38.801Z,997.15
2019-01-24T03:53:38.808Z,997.19
2019-01-24T03:54:38.785Z,997.21
2019-01-24T03:55:38.863Z,997.22
2019-01-24T03:56:39.046Z,997.24
2019-01-24T03:57:38.754Z,997.27
2019-01-24T03:58:38.738Z,997.30
2019-01-24T03:59:38.729Z,997.29
2019-01-24T04:00:38.720Z,997.30
2019-01-24T04:01:38.758Z,997.23
2019-01-24T04:02:38.701Z,997.29
2019-01-24T04:03:38.983Z,997.30
2019-01-24T04:04:38.677Z,997.30
2019-01-24T04:05:38.675Z,997.29
2019-01-24T04:06:38.669Z,997.28
2019-01-24T04:07:38.693Z,997.27
2019-01-24T04:08:38.660Z,997.32
2019-01-24T04:09:38.630Z,997.31
2019-01-24T04:10:38.905Z,997.38
2019-01-24T04:11:38.633Z,997.38
2019-01-24T04:12:38.596Z,997.38
2019-01-24T04:13:38.655Z,997.41
2019-01-24T04:14:38.577Z,997.33
2019-01-24T04:15:38.576Z,997.37
2019-01-24T04:16:38.559Z,997.31
2019-01-24T04:17:39.938Z,997.38
2019-01-24T04:18:38.539Z,997.37
2019-01-24T04:19:38.570Z,997.43
2019-01-24T04:20:38.514Z,997.33
2019-01-24T04:21:38.509Z,997.37
2019-01-24T04:22:38.497Z,997.33
2019-01-24T04:23:38.483Z,997.34
2019-01-24T04:24:38.478Z,997.32
2019-01-24T04:25:38.511Z,997.34
2019-01-24T04:26:38.455Z,997.34
2019-01-24T04:27:38.446Z,997.29
2019-01-24T04:28:38.433Z,997.31
2019-01-24T04:29:38.704Z,997.37
2019-01-24T04:30:38.416Z,997.34
2019-01-24T04:31:38.625Z,997.33
2019-01-24T04:32:38.395Z,997.33
2019-01-24T04:33:38.384Z,997.31
2019-01-24T04:34:38.371Z,997.31
2019-01-24T04:35:38.360Z,997.28
2019-01-24T04:36:38.355Z,997.34
2019-01-24T04:37:38.378Z,997.30
2019-01-24T04:38:38.329Z,997.31
2019-01-24T04:39:38.324Z,997.30
2019-01-24T04:40:38.308Z,997.39
2019-01-24T04:41:38.591Z,997.36
2019-01-24T04:42:38.288Z,997.35
2019-01-24T04:43:38.316Z,997.35
2019-01-24T04:44:38.280Z,997.37
2019-01-24T04:45:38.258Z,997.41
2019-01-24T04:46:38.249Z,997.43
2019-01-24T04:47:38.238Z,997.40
2019-01-24T04:48:38.517Z,997.46
2019-01-24T04:49:38.278Z,997.43
2019-01-24T04:50:38.209Z,997.48
2019-01-24T04:51:38.225Z,997.48
2019-01-24T04:52:38.187Z,997.47
2019-01-24T04:53:38.185Z,997.48
2019-01-24T04:54:38.165Z,997.45
2019-01-24T04:55:38.494Z,997.48
2019-01-24T04:56:38.147Z,997.46
2019-01-24T04:57:38.138Z,997.49
2019-01-24T04:58:38.138Z,997.51
2019-01-24T04:59:38.123Z,997.50
2019-01-24T05:00:38.120Z,997.54
2019-01-24T05:01:38.414Z,997.51
2019-01-24T05:02:38.195Z,997.53
2019-01-24T05:03:38.087Z,997.51
2019-01-24T05:04:38.065Z,997.49
2019-01-24T05:05:38.108Z,997.51
2019-01-24T05:06:38.049Z,997.52
2019-01-24T05:07:38.094Z,997.55
2019-01-24T05:08:38.504Z,997.58
2019-01-24T05:09:38.016Z,997.57
2019-01-24T05:10:38.008Z,997.59
2019-01-24T05:11:37.993Z,997.58
2019-01-24T05:12:37.981Z,997.61
2019-01-24T05:13:38.009Z,997.63
2019-01-24T05:14:37.983Z,997.61
2019-01-24T05:15:38.265Z,997.64
2019-01-24T05:16:37.948Z,997.63
2019-01-24T05:17:37.933Z,997.67
2019-01-24T05:18:37.933Z,997.65
2019-01-24T05:19:37.971Z,997.71
2019-01-24T05:20:37.899Z,997.70
2019-01-24T05:21:37.911Z,997.64
2019-01-24T05:22:38.304Z,997.71
2019-01-24T05:23:37.974Z,997.75
2019-01-24T05:24:37.859Z,997.76
2019-01-24T05:25:38.349Z,997.72
2019-01-24T05:26:37.838Z,997.76
2019-01-24T05:27:37.862Z,997.73
2019-01-24T05:28:37.821Z,997.71
2019-01-24T05:29:38.313Z,997.74
2019-01-24T05:30:37.801Z,997.77
2019-01-24T05:31:37.824Z,997.76
2019-01-24T05:32:37.788Z,997.74
2019-01-24T05:33:37.780Z,997.77
2019-01-24T05:34:37.796Z,997.78
2019-01-24T05:35:37.769Z,997.82
2019-01-24T05:36:38.024Z,997.85
2019-01-24T05:37:37.766Z,997.84
2019-01-24T05:38:37.716Z,997.88
2019-01-24T05:39:37.706Z,997.90
2019-01-24T05:40:37.698Z,997.89
2019-01-24T05:41:37.690Z,997.90
2019-01-24T05:42:37.687Z,997.93
2019-01-24T05:43:38.033Z,998.01
2019-01-24T05:44:37.667Z,998.01
2019-01-24T05:45:37.651Z,998.05
2019-01-24T05:46:37.646Z,998.06
2019-01-24T05:47:37.629Z,998.11
2019-01-24T05:48:37.615Z,998.08
2019-01-24T05:49:37.645Z,998.10
2019-01-24T05:50:37.911Z,998.10
2019-01-24T05:51:37.585Z,998.12
2019-01-24T05:52:37.576Z,998.15
2019-01-24T05:53:37.573Z,998.13
2019-01-24T05:54:37.562Z,998.18
2019-01-24T05:55:37.582Z,998.19
2019-01-24T05:56:37.541Z,998.23
2019-01-24T05:57:37.813Z,998.23
2019-01-24T05:58:37.515Z,998.22
2019-01-24T05:59:37.500Z,998.24
2019-01-24T06:00:37.493Z,998.24
2019-01-24T06:01:37.621Z,998.22
2019-01-24T06:02:37.485Z,998.29
2019-01-24T06:03:37.461Z,998.24
2019-01-24T06:04:37.737Z,998.26
2019-01-24T06:05:41.763Z,998.25
2019-01-24T06:06:37.430Z,998.26
2019-01-24T06:07:37.458Z,998.35
2019-01-24T06:08:37.414Z,998.36
2019-01-24T06:09:37.405Z,998.32
2019-01-24T06:10:37.398Z,998.33
2019-01-24T06:11:37.658Z,998.34
2019-01-24T06:12:37.369Z,998.32
2019-01-24T06:13:37.396Z,998.37
2019-01-24T06:14:37.366Z,998.32
2019-01-24T06:15:37.342Z,998.35
2019-01-24T06:16:37.333Z,998.39
2019-01-24T06:17:37.323Z,998.37
2019-01-24T06:18:37.774Z,998.32
2019-01-24T06:19:37.370Z,998.35
2019-01-24T06:20:37.304Z,998.32
2019-01-24T06:21:37.287Z,998.30
2019-01-24T06:22:37.270Z,998.28
2019-01-24T06:23:37.505Z,998.28
2019-01-24T06:24:37.347Z,998.33
2019-01-24T06:25:37.639Z,998.33
2019-01-24T06:26:37.231Z,998.34
2019-01-24T06:27:37.218Z,998.34
2019-01-24T06:28:37.215Z,998.36
2019-01-24T06:29:37.217Z,998.37
2019-01-24T06:30:37.190Z,998.37
2019-01-24T06:31:37.613Z,998.42
2019-01-24T06:32:37.168Z,998.39
2019-01-24T06:33:37.160Z,998.40
2019-01-24T06:34:37.169Z,998.31
2019-01-24T06:35:37.175Z,998.33
2019-01-24T06:36:37.125Z,998.34
2019-01-24T06:37:37.504Z,998.37
2019-01-24T06:38:37.104Z,998.33
2019-01-24T06:39:37.096Z,998.35
2019-01-24T06:40:37.097Z,998.36
2019-01-24T06:41:37.072Z,998.36
2019-01-24T06:42:37.076Z,998.35
2019-01-24T06:43:37.093Z,998.33
2019-01-24T06:44:37.341Z,998.29
2019-01-24T06:45:37.032Z,998.33
2019-01-24T06:46:37.023Z,998.33
2019-01-24T06:47:37.012Z,998.32
2019-01-24T06:48:37.004Z,998.37
2019-01-24T06:49:37.041Z,998.40
2019-01-24T06:50:37.623Z,998.36
2019-01-24T06:51:36.977Z,998.35
2019-01-24T06:52:36.962Z,998.35
2019-01-24T06:53:36.954Z,998.39
2019-01-24T06:54:36.939Z,998.38
2019-01-24T06:55:37.324Z,998.44
2019-01-24T06:56:37.205Z,998.35
2019-01-24T06:57:36.963Z,998.37
2019-01-24T06:58:36.957Z,998.38
2019-01-24T06:59:36.916Z,998.41
2019-01-24T07:00:36.881Z,998.43
2019-01-24T07:01:36.931Z,998.46
2019-01-24T07:02:36.866Z,998.42
2019-01-24T07:03:36.849Z,998.48
2019-01-24T07:04:36.924Z,998.49
2019-01-24T07:05:36.839Z,998.51
2019-01-24T07:06:36.855Z,998.48
2019-01-24T07:07:37.977Z,998.47
2019-01-24T07:08:37.098Z,998.51
2019-01-24T07:09:36.786Z,998.52
2019-01-24T07:10:36.888Z,998.56
2019-01-24T07:11:36.774Z,998.54
2019-01-24T07:12:36.794Z,998.58
2019-01-24T07:13:36.814Z,998.57
2019-01-24T07:14:36.750Z,998.59
2019-01-24T07:15:37.019Z,998.59
2019-01-24T07:16:36.715Z,998.58
2019-01-24T07:17:36.726Z,998.65
2019-01-24T07:18:36.696Z,998.69
2019-01-24T07:19:36.716Z,998.61
2019-01-24T07:20:36.676Z,998.66
2019-01-24T07:21:36.711Z,998.66
2019-01-24T07:22:37.123Z,998.68
2019-01-24T07:23:36.715Z,998.73
2019-01-24T07:24:36.642Z,998.72
2019-01-24T07:25:36.690Z,998.72
2019-01-24T07:26:36.617Z,998.76
2019-01-24T07:27:36.602Z,998.80
2019-01-24T07:28:36.623Z,998.83
2019-01-24T07:29:37.589Z,998.88
2019-01-24T07:30:36.609Z,998.91
2019-01-24T07:31:36.616Z,998.98
2019-01-24T07:32:36.555Z,999.01
2019-01-24T07:33:36.541Z,999.00
2019-01-24T07:34:36.532Z,999.03
2019-01-24T07:35:36.521Z,999.05
2019-01-24T07:36:36.794Z,999.13
2019-01-24T07:37:36.545Z,999.07
2019-01-24T07:38:36.495Z,999.15
2019-01-24T07:39:36.481Z,999.15
2019-01-24T07:40:36.579Z,999.13
2019-01-24T07:41:36.479Z,999.18
2019-01-24T07:42:36.589Z,999.18
2019-01-24T07:43:37.201Z,999.10
2019-01-24T07:44:36.428Z,999.17
2019-01-24T07:45:36.422Z,999.19
2019-01-24T07:46:36.414Z,999.18
2019-01-24T07:47:36.399Z,999.21
2019-01-24T07:48:36.390Z,999.26
2019-01-24T07:49:36.532Z,999.29
2019-01-24T07:50:36.775Z,999.28
2019-01-24T07:51:36.365Z,999.30
2019-01-24T07:52:36.352Z,999.30
2019-01-24T07:53:36.559Z,999.31
2019-01-24T07:54:36.547Z,999.31
2019-01-24T07:55:36.757Z,999.33
2019-01-24T07:56:36.350Z,999.34
2019-01-24T07:57:36.724Z,999.35
2019-01-24T07:58:36.376Z,999.37
2019-01-24T07:59:36.315Z,999.35
2019-01-24T08:00:36.270Z,999.35
2019-01-24T08:01:36.304Z,999.30
2019-01-24T08:02:36.247Z,999.33
2019-01-24T08:03:36.249Z,999.34
2019-01-24T08:04:36.624Z,999.34
2019-01-24T08:05:36.215Z,999.31
2019-01-24T08:06:36.207Z,999.26
2019-01-24T08:07:36.241Z,999.27
2019-01-24T08:08:36.198Z,999.26
2019-01-24T08:09:36.201Z,999.29
2019-01-24T08:10:36.173Z,999.30
2019-01-24T08:11:36.445Z,999.30
2019-01-24T08:12:36.160Z,999.28
2019-01-24T08:13:36.264Z,999.31
2019-01-24T08:14:36.122Z,999.32
2019-01-24T08:15:36.118Z,999.36
2019-01-24T08:16:36.102Z,999.33
2019-01-24T08:17:36.099Z,999.35
2019-01-24T08:18:36.367Z,999.44
2019-01-24T08:19:36.210Z,999.40
2019-01-24T08:20:36.065Z,999.41
2019-01-24T08:21:36.073Z,999.42
2019-01-24T08:22:36.056Z,999.36
2019-01-24T08:23:36.053Z,999.44
2019-01-24T08:24:36.020Z,999.48
2019-01-24T08:25:36.392Z,999.42
2019-01-24T08:26:36.001Z,999.51
2019-01-24T08:27:36.063Z,999.44
2019-01-24T08:28:36.049Z,999.51
2019-01-24T08:29:36.221Z,999.61
2019-01-24T08:30:35.969Z,999.60
2019-01-24T08:31:36.423Z,999.59
2019-01-24T08:32:35.939Z,999.58
2019-01-24T08:33:36.609Z,999.59
2019-01-24T08:34:35.918Z,999.65
2019-01-24T08:35:36.598Z,999.63
2019-01-24T08:36:36.783Z,999.70
2019-01-24T08:37:35.933Z,999.71
2019-01-24T08:38:35.900Z,999.70
2019-01-24T08:39:35.870Z,999.70
2019-01-24T08:40:35.860Z,999.70
2019-01-24T08:41:35.847Z,999.69
2019-01-24T08:42:35.838Z,999.78
2019-01-24T08:43:36.320Z,999.78
2019-01-24T08:44:35.816Z,999.73
2019-01-24T08:45:35.855Z,999.76
2019-01-24T08:46:36.159Z,999.76
2019-01-24T08:47:35.791Z,999.75
2019-01-24T08:48:35.778Z,999.75
2019-01-24T08:49:35.928Z,999.73
2019-01-24T08:50:35.756Z,999.80
2019-01-24T08:51:35.744Z,999.78
2019-01-24T08:52:35.734Z,999.80
2019-01-24T08:53:35.726Z,999.76
2019-01-24T08:54:35.718Z,999.80
2019-01-24T08:55:36.607Z,999.81
2019-01-24T08:56:35.696Z,999.77
2019-01-24T08:57:35.717Z,999.82
2019-01-24T08:58:35.679Z,999.75
2019-01-24T08:59:35.671Z,999.73
2019-01-24T09:00:35.652Z,999.77
2019-01-24T09:01:36.029Z,999.76
2019-01-24T09:02:35.659Z,999.78
2019-01-24T09:03:35.629Z,999.76
2019-01-24T09:04:35.664Z,999.76
2019-01-24T09:05:35.601Z,999.78
2019-01-24T09:06:35.596Z,999.80
2019-01-24T09:07:35.804Z,999.80
2019-01-24T09:08:36.023Z,999.82
2019-01-24T09:09:35.635Z,999.79
2019-01-24T09:10:35.631Z,999.79
2019-01-24T09:11:35.663Z,999.78
2019-01-24T09:12:35.684Z,999.74
2019-01-24T09:13:35.589Z,999.82
2019-01-24T09:14:35.569Z,999.75
2019-01-24T09:15:35.498Z,999.75
2019-01-24T09:16:35.512Z,999.71
2019-01-24T09:17:35.510Z,999.71
2019-01-24T09:18:35.513Z,999.75
2019-01-24T09:19:35.520Z,999.75
2019-01-24T09:20:35.456Z,999.78
2019-01-24T09:21:35.729Z,999.76
2019-01-24T09:22:35.438Z,999.85
2019-01-24T09:23:35.420Z,999.82
2019-01-24T09:24:35.407Z,999.88
2019-01-24T09:25:35.477Z,999.84
2019-01-24T09:26:35.387Z,999.82
2019-01-24T09:27:35.377Z,999.83
2019-01-24T09:28:35.690Z,999.85
2019-01-24T09:29:35.362Z,999.86
2019-01-24T09:30:35.351Z,999.88
2019-01-24T09:31:35.370Z,999.85
2019-01-24T09:32:35.331Z,999.86
2019-01-24T09:33:35.315Z,999.87
2019-01-24T09:34:35.318Z,999.88
2019-01-24T09:35:35.680Z,999.85
2019-01-24T09:36:35.308Z,999.87
2019-01-24T09:37:35.326Z,999.88
2019-01-24T09:38:35.272Z,999.86
2019-01-24T09:39:35.292Z,999.85
2019-01-24T09:40:35.269Z,999.85
2019-01-24T09:41:35.233Z,999.86
2019-01-24T09:42:35.547Z,999.84
2019-01-24T09:43:35.242Z,999.85
2019-01-24T09:44:35.206Z,999.81
2019-01-24T09:45:35.214Z,999.86
2019-01-24T09:46:35.186Z,999.87
2019-01-24T09:47:35.175Z,999.87
2019-01-24T09:48:35.163Z,999.86
2019-01-24T09:49:35.472Z,999.86
2019-01-24T09:50:35.190Z,999.89
2019-01-24T09:51:35.131Z,999.89
2019-01-24T09:52:36.272Z,999.89
2019-01-24T09:53:35.185Z,999.88
2019-01-24T09:54:36.080Z,999.89
2019-01-24T09:55:37.637Z,999.89
2019-01-24T09:56:35.129Z,999.90
2019-01-24T09:57:35.596Z,999.90
2019-01-24T09:58:35.061Z,999.85
2019-01-24T09:59:36.069Z,999.87
2019-01-24T10:00:35.039Z,999.92
2019-01-24T10:01:35.056Z,999.92
2019-01-24T10:02:35.574Z,999.95
2019-01-24T10:03:35.646Z,999.94
2019-01-24T10:04:35.674Z,999.92
2019-01-24T10:05:35.000Z,999.96
2019-01-24T10:06:36.393Z,999.96
2019-01-24T10:07:35.324Z,999.98
2019-01-24T10:08:34.958Z,999.90
2019-01-24T10:09:34.980Z,999.93
2019-01-24T10:10:34.950Z,999.98
2019-01-24T10:11:34.994Z,999.95
2019-01-24T10:12:36.175Z,999.96
2019-01-24T10:13:34.943Z,999.96
2019-01-24T10:14:34.899Z,1000.00
2019-01-24T10:15:34.888Z,1000.00
2019-01-24T10:16:34.889Z,1000.04
2019-01-24T10:17:35.534Z,1000.00
2019-01-24T10:18:34.856Z,1000.00
2019-01-24T10:19:34.896Z,999.95
2019-01-24T10:20:34.839Z,999.99
2019-01-24T10:21:34.866Z,999.99
2019-01-24T10:22:35.134Z,999.94
2019-01-24T10:23:34.803Z,999.93
2019-01-24T10:24:34.857Z,999.92
2019-01-24T10:25:35.270Z,999.95
2019-01-24T10:26:34.775Z,999.97
2019-01-24T10:27:34.765Z,1000.00
2019-01-24T10:28:34.756Z,1000.00
2019-01-24T10:29:34.785Z,999.95
2019-01-24T10:30:34.776Z,999.97
2019-01-24T10:31:35.234Z,999.90
2019-01-24T10:32:34.845Z,999.99
2019-01-24T10:33:34.773Z,999.97
2019-01-24T10:34:34.695Z,999.95
2019-01-24T10:35:34.796Z,1000.01
2019-01-24T10:36:34.759Z,1000.02
2019-01-24T10:37:35.503Z,1000.00
2019-01-24T10:38:35.245Z,999.98
2019-01-24T10:39:34.781Z,999.98
2019-01-24T10:40:34.640Z,999.99
2019-01-24T10:41:34.712Z,999.98
2019-01-24T10:42:34.661Z,1000.01
2019-01-24T10:43:34.896Z,999.96
2019-01-24T10:44:34.682Z,999.97
2019-01-24T10:45:35.071Z,999.96
2019-01-24T10:46:34.663Z,999.97
2019-01-24T10:47:34.659Z,999.98
2019-01-24T10:48:34.715Z,999.98
2019-01-24T10:49:34.644Z,999.97
2019-01-24T10:50:35.293Z,1000.00
2019-01-24T10:51:34.521Z,1000.01
2019-01-24T10:52:34.985Z,999.94
2019-01-24T10:53:34.525Z,999.93
2019-01-24T10:54:34.627Z,999.92
2019-01-24T10:55:34.504Z,999.89
2019-01-24T10:56:35.324Z,999.90
2019-01-24T10:57:34.464Z,999.93
2019-01-24T10:58:34.597Z,999.93
2019-01-24T10:59:34.458Z,999.91
2019-01-24T11:00:34.428Z,999.94
2019-01-24T11:01:34.445Z,999.95
2019-01-24T11:02:34.407Z,999.99
2019-01-24T11:03:34.451Z,999.99
2019-01-24T11:04:34.389Z,1000.01
2019-01-24T11:05:34.867Z,1000.00
2019-01-24T11:06:34.364Z,1000.01
2019-01-24T11:07:34.451Z,1000.02
2019-01-24T11:08:34.364Z,999.98
2019-01-24T11:09:34.337Z,999.99
2019-01-24T11:10:34.326Z,1000.00
2019-01-24T11:11:34.334Z,999.95
2019-01-24T11:12:34.302Z,999.96
2019-01-24T11:13:34.345Z,999.95
2019-01-24T11:14:34.282Z,999.96
2019-01-24T11:15:35.513Z,999.99
2019-01-24T11:16:34.409Z,999.96
2019-01-24T11:17:34.909Z,999.94
2019-01-24T11:18:34.359Z,999.96
2019-01-24T11:19:34.416Z,999.95
2019-01-24T11:20:34.392Z,999.97
2019-01-24T11:21:34.368Z,999.95
2019-01-24T11:22:34.215Z,999.93
2019-01-24T11:23:34.207Z,999.93
2019-01-24T11:24:34.229Z,999.89
2019-01-24T11:25:34.383Z,999.90
2019-01-24T11:26:34.168Z,999.92
2019-01-24T11:27:34.160Z,999.90
2019-01-24T11:28:34.141Z,999.90
2019-01-24T11:29:34.149Z,999.93
2019-01-24T11:30:34.130Z,999.93
2019-01-24T11:31:34.145Z,999.89
2019-01-24T11:32:34.127Z,999.88
2019-01-24T11:33:34.101Z,999.84
2019-01-24T11:34:34.146Z,999.80
2019-01-24T11:35:34.470Z,999.77
2019-01-24T11:36:34.120Z,999.74
2019-01-24T11:37:37.091Z,999.78
2019-01-24T11:38:34.560Z,999.75
2019-01-24T11:39:34.286Z,999.69
2019-01-24T11:40:34.549Z,999.71
2019-01-24T11:41:34.004Z,999.73
2019-01-24T11:42:34.477Z,999.68
2019-01-24T11:43:34.024Z,999.59
2019-01-24T11:44:33.979Z,999.66
2019-01-24T11:45:33.988Z,999.60
2019-01-24T11:46:33.975Z,999.54
2019-01-24T11:47:33.954Z,999.60
2019-01-24T11:48:33.935Z,999.58
2019-01-24T11:49:34.312Z,999.62
2019-01-24T11:50:34.550Z,999.57
2019-01-24T11:51:33.923Z,999.54
2019-01-24T11:52:33.891Z,999.53
2019-01-24T11:53:33.881Z,999.60
2019-01-24T11:54:33.871Z,999.54
2019-01-24T11:55:33.886Z,999.54
2019-01-24T11:56:34.180Z,999.53
2019-01-24T11:57:33.838Z,999.55
2019-01-24T11:58:33.840Z,999.52
2019-01-24T11:59:33.839Z,999.55
2019-01-24T12:00:34.168Z,999.58
2019-01-24T12:01:34.048Z,999.58
2019-01-24T12:02:39.711Z,999.48
2019-01-24T12:03:35.204Z,999.53
2019-01-24T12:04:33.853Z,999.52
2019-01-24T12:05:34.566Z,999.51
2019-01-24T12:06:33.969Z,999.52
2019-01-24T12:07:33.998Z,999.43
2019-01-24T12:08:34.132Z,999.44
2019-01-24T12:09:33.847Z,999.48
2019-01-24T12:10:34.895Z,999.44
2019-01-24T12:11:34.562Z,999.45
2019-01-24T12:12:33.681Z,999.48
2019-01-24T12:13:33.721Z,999.51
2019-01-24T12:14:33.666Z,999.53
2019-01-24T12:15:33.655Z,999.52
2019-01-24T12:16:33.678Z,999.54
2019-01-24T12:17:33.635Z,999.59
2019-01-24T12:18:33.634Z,999.52
2019-01-24T12:19:34.466Z,999.53
2019-01-24T12:20:33.602Z,999.54
2019-01-24T12:21:33.593Z,999.57
2019-01-24T12:22:33.598Z,999.53
2019-01-24T12:23:35.011Z,999.53
2019-01-24T12:24:33.606Z,999.57
2019-01-24T12:25:33.648Z,999.48
2019-01-24T12:26:33.548Z,999.45
2019-01-24T12:27:33.789Z,999.44
2019-01-24T12:28:33.521Z,999.42